createdAt,value
2022-12-07T00:00:57.657Z,58.17
2022-12-07T00:01:57.683Z,56.88
2022-12-07T00:02:57.742Z,56.72
2022-12-07T00:03:57.653Z,56.40
2022-12-07T00:04:57.684Z,58.33
2022-12-07T00:05:57.621Z,59.46
2022-12-07T00:06:57.661Z,56.72
2022-12-07T00:07:57.654Z,56.40
2022-12-07T00:08:57.631Z,57.85
2022-12-07T00:09:57.627Z,56.56
2022-12-07T00:10:57.664Z,58.97
2022-12-07T00:11:57.596Z,58.17
2022-12-07T00:12:57.574Z,57.36
2022-12-07T00:13:57.584Z,62.36
2022-12-07T00:14:57.588Z,58.81
2022-12-07T00:15:57.563Z,57.52
2022-12-07T00:16:57.755Z,57.85
2022-12-07T00:17:57.556Z,58.01
2022-12-07T00:18:57.570Z,57.20
2022-12-07T00:19:57.548Z,60.91
2022-12-07T00:20:57.550Z,57.69
2022-12-07T00:21:57.552Z,57.04
2022-12-07T00:22:57.573Z,59.78
2022-12-07T00:23:57.519Z,57.04
2022-12-07T00:24:57.526Z,56.56
2022-12-07T00:25:57.542Z,56.88
2022-12-07T00:26:57.508Z,57.04
2022-12-07T00:27:57.487Z,57.20
2022-12-07T00:28:57.501Z,57.52
2022-12-07T00:29:57.479Z,56.40
2022-12-07T00:30:57.459Z,63.97
2022-12-07T00:31:57.513Z,57.20
2022-12-07T00:32:57.474Z,60.75
2022-12-07T00:33:57.463Z,57.36
2022-12-07T00:34:57.536Z,59.78
2022-12-07T00:35:57.444Z,56.72
2022-12-07T00:36:57.457Z,57.04
2022-12-07T00:37:57.418Z,56.40
2022-12-07T00:38:57.410Z,60.26
2022-12-07T00:39:57.406Z,59.30
2022-12-07T00:40:57.456Z,57.36
2022-12-07T00:41:57.401Z,56.88
2022-12-07T00:42:57.412Z,57.04
2022-12-07T00:43:57.390Z,57.04
2022-12-07T00:44:57.386Z,57.20
2022-12-07T00:45:57.420Z,56.24
2022-12-07T00:46:57.485Z,56.56
2022-12-07T00:47:57.360Z,56.72
2022-12-07T00:48:57.343Z,58.01
2022-12-07T00:49:57.333Z,64.94
2022-12-07T00:50:57.336Z,61.55
2022-12-07T00:51:57.305Z,57.85
2022-12-07T00:52:57.366Z,57.69
2022-12-07T00:53:57.310Z,56.72
2022-12-07T00:54:57.307Z,62.84
2022-12-07T00:55:57.297Z,56.56
2022-12-07T00:56:57.275Z,58.01
2022-12-07T00:57:57.273Z,57.52
2022-12-07T00:58:57.424Z,57.85
2022-12-07T00:59:57.248Z,57.36
2022-12-07T01:00:57.260Z,56.88
2022-12-07T01:01:57.298Z,57.52
2022-12-07T01:02:57.251Z,57.20
2022-12-07T01:03:57.227Z,56.88
2022-12-07T01:04:57.277Z,66.39
2022-12-07T01:05:57.222Z,58.65
2022-12-07T01:06:57.205Z,56.72
2022-12-07T01:07:57.237Z,56.40
2022-12-07T01:08:57.177Z,56.88
2022-12-07T01:09:57.157Z,57.04
2022-12-07T01:10:57.250Z,56.56
2022-12-07T01:11:57.174Z,56.56
2022-12-07T01:12:57.154Z,56.40
2022-12-07T01:13:57.159Z,56.56
2022-12-07T01:14:57.156Z,56.24
2022-12-07T01:15:57.147Z,56.40
2022-12-07T01:16:57.401Z,56.40
2022-12-07T01:17:57.139Z,56.72
2022-12-07T01:18:57.115Z,57.20
2022-12-07T01:19:57.135Z,56.40
2022-12-07T01:20:57.095Z,56.72
2022-12-07T01:21:57.082Z,59.30
2022-12-07T01:22:57.136Z,56.56
2022-12-07T01:23:57.074Z,56.40
2022-12-07T01:24:57.092Z,63.97
2022-12-07T01:25:57.051Z,63.00
2022-12-07T01:26:57.103Z,56.56
2022-12-07T01:27:57.056Z,55.91
2022-12-07T01:28:57.093Z,57.04
2022-12-07T01:29:57.056Z,57.04
2022-12-07T01:30:57.101Z,59.94
2022-12-07T01:31:57.037Z,59.14
2022-12-07T01:32:57.040Z,56.88
2022-12-07T01:33:57.021Z,56.88
2022-12-07T01:34:57.060Z,58.65
2022-12-07T01:35:57.018Z,56.40
2022-12-07T01:36:56.981Z,57.52
2022-12-07T01:37:56.983Z,57.04
2022-12-07T01:38:56.991Z,57.04
2022-12-07T01:39:56.966Z,56.24
2022-12-07T01:40:57.017Z,56.56
2022-12-07T01:41:56.942Z,56.40
2022-12-07T01:42:56.975Z,60.75
2022-12-07T01:43:56.929Z,61.07
2022-12-07T01:44:56.945Z,57.52
2022-12-07T01:45:56.974Z,57.36
2022-12-07T01:46:56.977Z,56.40
2022-12-07T01:47:56.888Z,61.07
2022-12-07T01:48:56.916Z,66.06
2022-12-07T01:49:56.899Z,56.24
2022-12-07T01:50:56.898Z,56.24
2022-12-07T01:51:56.890Z,56.56
2022-12-07T01:52:56.933Z,58.17
2022-12-07T01:53:56.868Z,57.20
2022-12-07T01:54:56.873Z,56.40
2022-12-07T01:55:56.857Z,56.56
2022-12-07T01:56:56.833Z,57.04
2022-12-07T01:57:56.853Z,58.17
2022-12-07T01:58:56.896Z,56.40
2022-12-07T01:59:56.864Z,56.56
2022-12-07T02:00:56.818Z,61.87
2022-12-07T02:01:56.939Z,60.42
2022-12-07T02:02:56.872Z,57.04
2022-12-07T02:03:56.793Z,56.88
2022-12-07T02:04:57.094Z,56.72
2022-12-07T02:05:56.802Z,57.04
2022-12-07T02:06:56.766Z,56.56
2022-12-07T02:07:56.801Z,56.56
2022-12-07T02:08:56.770Z,56.07
2022-12-07T02:09:56.784Z,56.56
2022-12-07T02:10:56.790Z,56.40
2022-12-07T02:11:56.742Z,56.72
2022-12-07T02:12:56.742Z,56.72
2022-12-07T02:13:56.720Z,56.40
2022-12-07T02:14:56.721Z,56.56
2022-12-07T02:15:56.794Z,56.40
2022-12-07T02:16:56.741Z,56.40
2022-12-07T02:17:56.695Z,55.91
2022-12-07T02:18:56.678Z,56.40
2022-12-07T02:19:56.702Z,56.40
2022-12-07T02:20:56.692Z,56.40
2022-12-07T02:21:56.654Z,56.56
2022-12-07T02:22:56.687Z,55.91
2022-12-07T02:23:56.658Z,55.75
2022-12-07T02:24:56.667Z,55.43
2022-12-07T02:25:56.643Z,56.07
2022-12-07T02:26:56.654Z,56.24
2022-12-07T02:27:56.633Z,57.04
2022-12-07T02:28:56.660Z,56.72
2022-12-07T02:29:56.616Z,56.72
2022-12-07T02:30:56.666Z,56.40
2022-12-07T02:31:56.600Z,56.24
2022-12-07T02:32:56.605Z,56.40
2022-12-07T02:33:56.606Z,56.88
2022-12-07T02:34:56.646Z,56.40
2022-12-07T02:35:56.595Z,56.72
2022-12-07T02:36:56.567Z,56.24
2022-12-07T02:37:56.556Z,55.91
2022-12-07T02:38:56.563Z,57.20
2022-12-07T02:39:56.536Z,57.36
2022-12-07T02:40:56.601Z,56.40
2022-12-07T02:41:56.539Z,56.40
2022-12-07T02:42:56.506Z,56.56
2022-12-07T02:43:56.510Z,56.72
2022-12-07T02:44:56.493Z,55.91
2022-12-07T02:45:56.561Z,55.59
2022-12-07T02:46:56.541Z,56.07
2022-12-07T02:47:56.478Z,55.91
2022-12-07T02:48:56.460Z,56.07
2022-12-07T02:49:56.502Z,55.43
2022-12-07T02:50:56.454Z,55.43
2022-12-07T02:51:56.462Z,55.91
2022-12-07T02:52:56.511Z,56.40
2022-12-07T02:53:56.454Z,55.91
2022-12-07T02:54:56.448Z,56.40
2022-12-07T02:55:56.438Z,56.07
2022-12-07T02:56:56.434Z,56.24
2022-12-07T02:57:56.434Z,57.20
2022-12-07T02:58:56.470Z,55.91
2022-12-07T02:59:56.420Z,56.07
2022-12-07T03:00:56.432Z,56.56
2022-12-07T03:01:56.500Z,56.88
2022-12-07T03:02:56.492Z,56.88
2022-12-07T03:03:56.375Z,56.56
2022-12-07T03:04:56.530Z,57.85
2022-12-07T03:05:56.354Z,65.90
2022-12-07T03:06:56.372Z,57.04
2022-12-07T03:07:56.423Z,59.62
2022-12-07T03:08:56.373Z,62.68
2022-12-07T03:09:56.362Z,57.69
2022-12-07T03:10:56.395Z,56.40
2022-12-07T03:11:56.311Z,61.55
2022-12-07T03:12:56.331Z,58.17
2022-12-07T03:13:56.332Z,56.07
2022-12-07T03:14:56.313Z,56.40
2022-12-07T03:15:56.366Z,58.17
2022-12-07T03:16:56.353Z,55.75
2022-12-07T03:17:56.292Z,55.91
2022-12-07T03:18:56.274Z,56.40
2022-12-07T03:19:56.272Z,56.24
2022-12-07T03:20:56.252Z,55.59
2022-12-07T03:21:56.259Z,56.88
2022-12-07T03:22:56.303Z,56.07
2022-12-07T03:23:56.252Z,56.40
2022-12-07T03:24:56.252Z,56.24
2022-12-07T03:26:00.439Z,56.88
2022-12-07T03:26:56.224Z,63.33
2022-12-07T03:27:56.202Z,58.97
2022-12-07T03:28:56.263Z,56.40
2022-12-07T03:29:56.206Z,56.72
2022-12-07T03:30:56.242Z,56.24
2022-12-07T03:31:56.205Z,57.20
2022-12-07T03:32:56.191Z,56.72
2022-12-07T03:33:56.172Z,62.84
2022-12-07T03:34:56.218Z,56.72
2022-12-07T03:35:56.162Z,57.04
2022-12-07T03:36:56.174Z,58.49
2022-12-07T03:37:56.149Z,57.20
2022-12-07T03:38:56.151Z,56.56
2022-12-07T03:39:56.154Z,57.04
2022-12-07T03:40:56.192Z,63.00
2022-12-07T03:41:56.131Z,61.71
2022-12-07T03:42:56.109Z,57.04
2022-12-07T03:43:56.104Z,56.88
2022-12-07T03:44:56.106Z,57.04
2022-12-07T03:45:56.098Z,56.72
2022-12-07T03:46:56.216Z,61.39
2022-12-07T03:47:56.075Z,66.06
2022-12-07T03:48:56.094Z,58.01
2022-12-07T03:49:56.083Z,65.90
2022-12-07T03:50:56.055Z,61.39
2022-12-07T03:51:56.050Z,57.85
2022-12-07T03:52:56.102Z,68.80
2022-12-07T03:53:56.038Z,67.35
2022-12-07T03:54:56.027Z,57.04
2022-12-07T03:55:56.019Z,64.13
2022-12-07T03:56:56.013Z,57.20
2022-12-07T03:57:56.022Z,68.80
2022-12-07T03:58:56.048Z,56.72
2022-12-07T03:59:56.003Z,58.49
2022-12-07T04:00:56.002Z,64.78
2022-12-07T04:01:56.057Z,56.56
2022-12-07T04:02:56.012Z,56.07
2022-12-07T04:03:55.962Z,56.56
2022-12-07T04:04:56.025Z,56.72
2022-12-07T04:05:55.938Z,56.88
2022-12-07T04:06:55.948Z,56.56
2022-12-07T04:07:55.983Z,56.56
2022-12-07T04:08:55.936Z,66.87
2022-12-07T04:09:55.940Z,57.20
2022-12-07T04:10:56.355Z,56.56
2022-12-07T04:11:55.916Z,68.96
2022-12-07T04:12:55.913Z,56.88
2022-12-07T04:13:55.892Z,57.52
2022-12-07T04:14:55.896Z,61.71
2022-12-07T04:15:55.906Z,56.56
2022-12-07T04:16:55.933Z,57.20
2022-12-07T04:17:55.869Z,57.69
2022-12-07T04:18:55.873Z,57.04
2022-12-07T04:19:55.867Z,57.20
2022-12-07T04:20:55.853Z,57.85
2022-12-07T04:21:55.850Z,58.01
2022-12-07T04:22:55.893Z,66.55
2022-12-07T04:23:55.841Z,59.46
2022-12-07T04:24:55.823Z,61.71
2022-12-07T04:25:55.811Z,58.49
2022-12-07T04:26:55.812Z,63.00
2022-12-07T04:27:55.794Z,58.01
2022-12-07T04:28:55.852Z,57.36
2022-12-07T04:29:55.783Z,58.01
2022-12-07T04:30:55.793Z,64.78
2022-12-07T04:31:55.825Z,66.06
2022-12-07T04:32:55.766Z,60.26
2022-12-07T04:33:55.784Z,57.85
2022-12-07T04:34:56.195Z,61.71
2022-12-07T04:35:55.733Z,61.87
2022-12-07T04:36:55.748Z,60.26
2022-12-07T04:37:55.709Z,58.01
2022-12-07T04:38:55.703Z,58.81
2022-12-07T04:39:55.723Z,64.94
2022-12-07T04:40:55.756Z,58.65
2022-12-07T04:41:55.721Z,69.45
2022-12-07T04:42:55.703Z,63.65
2022-12-07T04:43:55.703Z,63.81
2022-12-07T04:44:55.691Z,58.33
2022-12-07T04:45:55.680Z,63.33
2022-12-07T04:46:55.799Z,63.97
2022-12-07T04:47:55.653Z,66.23
2022-12-07T04:48:55.671Z,58.01
2022-12-07T04:49:55.653Z,60.59
2022-12-07T04:50:55.639Z,58.17
2022-12-07T04:51:55.632Z,58.49
2022-12-07T04:52:55.673Z,58.17
2022-12-07T04:53:55.619Z,64.29
2022-12-07T04:54:55.623Z,59.14
2022-12-07T04:55:55.607Z,61.71
2022-12-07T04:56:55.593Z,61.71
2022-12-07T04:57:55.580Z,65.10
2022-12-07T04:58:55.633Z,64.29
2022-12-07T04:59:55.566Z,60.26
2022-12-07T05:00:55.648Z,59.78
2022-12-07T05:01:55.584Z,59.62
2022-12-07T05:02:55.552Z,62.04
2022-12-07T05:03:55.546Z,57.85
2022-12-07T05:04:55.587Z,65.90
2022-12-07T05:05:55.533Z,64.61
2022-12-07T05:06:55.521Z,68.32
2022-12-07T05:07:55.561Z,63.33
2022-12-07T05:08:55.516Z,58.81
2022-12-07T05:09:55.505Z,69.45
2022-12-07T05:10:55.538Z,57.36
2022-12-07T05:11:55.493Z,64.13
2022-12-07T05:12:55.486Z,57.85
2022-12-07T05:13:55.473Z,61.39
2022-12-07T05:14:55.464Z,58.33
2022-12-07T05:15:55.494Z,57.69
2022-12-07T05:16:55.727Z,59.62
2022-12-07T05:17:55.454Z,65.26
2022-12-07T05:18:55.482Z,60.42
2022-12-07T05:19:55.425Z,59.94
2022-12-07T05:20:55.444Z,62.68
2022-12-07T05:21:55.422Z,62.68
2022-12-07T05:22:55.501Z,62.36
2022-12-07T05:23:55.401Z,62.20
2022-12-07T05:24:55.431Z,65.10
2022-12-07T05:25:55.388Z,69.93
2022-12-07T05:26:55.393Z,69.77
2022-12-07T05:27:55.374Z,66.39
2022-12-07T05:28:55.425Z,58.49
2022-12-07T05:29:55.353Z,66.06
2022-12-07T05:30:59.704Z,65.10
2022-12-07T05:31:55.435Z,62.36
2022-12-07T05:32:55.352Z,63.81
2022-12-07T05:33:55.361Z,65.10
2022-12-07T05:34:55.374Z,65.58
2022-12-07T05:35:55.334Z,67.03
2022-12-07T05:36:55.315Z,66.87
2022-12-07T05:37:55.297Z,59.46
2022-12-07T05:38:55.294Z,64.29
2022-12-07T05:39:55.293Z,65.10
2022-12-07T05:40:55.326Z,60.59
2022-12-07T05:41:55.285Z,66.87
2022-12-07T05:42:56.901Z,69.61
2022-12-07T05:43:55.262Z,73.32
2022-12-07T05:44:55.257Z,63.16
2022-12-07T05:45:55.297Z,64.78
2022-12-07T05:46:55.278Z,65.26
2022-12-07T05:47:55.230Z,62.68
2022-12-07T05:48:55.226Z,65.10
2022-12-07T05:49:55.223Z,62.36
2022-12-07T05:50:55.204Z,61.39
2022-12-07T05:51:55.196Z,64.13
2022-12-07T05:52:55.263Z,63.33
2022-12-07T05:53:55.215Z,65.26
2022-12-07T05:54:55.200Z,62.52
2022-12-07T05:55:55.163Z,67.19
2022-12-07T05:56:55.186Z,70.42
2022-12-07T05:57:55.174Z,75.73
2022-12-07T05:58:55.213Z,68.16
2022-12-07T05:59:55.147Z,72.51
2022-12-07T06:00:55.161Z,66.06
2022-12-07T06:01:55.255Z,65.58
2022-12-07T06:02:55.264Z,66.23
2022-12-07T06:03:55.136Z,76.22
2022-12-07T06:04:55.181Z,64.94
2022-12-07T06:05:55.148Z,61.55
2022-12-07T06:06:55.122Z,61.07
2022-12-07T06:07:55.178Z,66.87
2022-12-07T06:08:55.101Z,67.51
2022-12-07T06:09:55.075Z,67.84
2022-12-07T06:10:55.150Z,72.35
2022-12-07T06:11:55.077Z,72.03
2022-12-07T06:12:55.062Z,71.54
2022-12-07T06:13:55.078Z,78.96
2022-12-07T06:14:55.042Z,69.45
2022-12-07T06:15:55.037Z,69.61
2022-12-07T06:16:55.173Z,66.23
2022-12-07T06:17:55.058Z,67.84
2022-12-07T06:18:55.050Z,67.84
2022-12-07T06:19:55.040Z,73.48
2022-12-07T06:20:55.006Z,68.80
2022-12-07T06:21:55.013Z,70.25
2022-12-07T06:22:55.301Z,67.19
2022-12-07T06:23:54.997Z,68.80
2022-12-07T06:24:54.985Z,71.54
2022-12-07T06:25:54.993Z,71.06
2022-12-07T06:26:54.970Z,70.90
2022-12-07T06:27:57.840Z,68.80
2022-12-07T06:28:54.994Z,69.45
2022-12-07T06:29:54.958Z,68.32
2022-12-07T06:30:54.942Z,68.96
2022-12-07T06:31:55.012Z,71.22
2022-12-07T06:32:54.929Z,67.68
2022-12-07T06:33:54.931Z,75.09
2022-12-07T06:34:54.974Z,68.16
2022-12-07T06:35:54.919Z,68.00
2022-12-07T06:36:54.914Z,69.45
2022-12-07T06:37:54.900Z,68.32
2022-12-07T06:38:54.872Z,70.25
2022-12-07T06:39:54.890Z,82.82
2022-12-07T06:40:54.939Z,78.79
2022-12-07T06:41:54.942Z,72.03
2022-12-07T06:42:54.845Z,82.82
2022-12-07T06:43:56.344Z,73.32
2022-12-07T06:44:54.838Z,76.54
2022-12-07T06:45:54.965Z,73.32
2022-12-07T06:47:12.372Z,73.48
2022-12-07T06:47:55.827Z,77.50
2022-12-07T06:48:54.813Z,86.21
2022-12-07T06:49:54.814Z,80.89
2022-12-07T06:50:55.542Z,82.98
2022-12-07T06:51:54.790Z,78.31
2022-12-07T06:52:54.850Z,76.05
2022-12-07T06:53:54.769Z,70.25
2022-12-07T06:54:54.771Z,66.23
2022-12-07T06:55:54.779Z,65.26
2022-12-07T06:56:54.753Z,66.55
2022-12-07T06:57:54.741Z,65.10
2022-12-07T06:58:54.793Z,64.94
2022-12-07T06:59:54.712Z,67.03
2022-12-07T07:00:54.774Z,66.39
2022-12-07T07:01:54.748Z,65.26
2022-12-07T07:02:54.847Z,66.71
2022-12-07T07:03:54.724Z,68.00
2022-12-07T07:04:54.746Z,68.32
2022-12-07T07:05:54.690Z,66.71
2022-12-07T07:06:59.764Z,72.51
2022-12-07T07:08:21.356Z,75.25
2022-12-07T07:08:55.706Z,72.51
2022-12-07T07:09:54.671Z,72.35
2022-12-07T07:10:54.713Z,71.06
2022-12-07T07:11:54.641Z,72.51
2022-12-07T07:12:57.524Z,63.33
2022-12-07T07:13:54.645Z,63.65
2022-12-07T07:14:54.641Z,65.58
2022-12-07T07:15:54.637Z,67.35
2022-12-07T07:16:54.727Z,69.13
2022-12-07T07:17:54.610Z,67.03
2022-12-07T07:18:54.614Z,67.51
2022-12-07T07:19:54.590Z,70.42
2022-12-07T07:20:54.648Z,64.29
2022-12-07T07:21:54.592Z,70.58
2022-12-07T07:22:54.643Z,66.87
2022-12-07T07:23:54.569Z,71.70
2022-12-07T07:24:54.558Z,68.96
2022-12-07T07:25:54.542Z,65.26
2022-12-07T07:26:54.553Z,73.64
2022-12-07T07:27:54.526Z,68.00
2022-12-07T07:28:54.994Z,64.61
2022-12-07T07:29:54.535Z,65.42
2022-12-07T07:30:54.574Z,66.87
2022-12-07T07:31:54.508Z,65.10
2022-12-07T07:32:54.521Z,62.36
2022-12-07T07:33:54.497Z,67.68
2022-12-07T07:34:54.532Z,64.45
2022-12-07T07:35:54.480Z,66.71
2022-12-07T07:36:54.493Z,66.39
2022-12-07T07:37:54.475Z,67.51
2022-12-07T07:38:54.466Z,63.16
2022-12-07T07:39:54.469Z,65.26
2022-12-07T07:40:54.504Z,67.35
2022-12-07T07:41:54.441Z,64.94
2022-12-07T07:42:54.443Z,68.00
2022-12-07T07:43:54.444Z,67.51
2022-12-07T07:44:54.422Z,68.80
2022-12-07T07:45:54.502Z,66.23
2022-12-07T07:46:54.464Z,68.64
2022-12-07T07:47:54.418Z,68.32
2022-12-07T07:48:54.382Z,67.68
2022-12-07T07:49:54.391Z,76.05
2022-12-07T07:50:54.395Z,68.16
2022-12-07T07:51:54.363Z,66.39
2022-12-07T07:52:54.426Z,68.64
2022-12-07T07:53:54.353Z,63.49
2022-12-07T07:54:54.378Z,66.39
2022-12-07T07:55:54.351Z,68.48
2022-12-07T07:56:54.337Z,68.00
2022-12-07T07:57:55.077Z,67.84
2022-12-07T07:58:54.364Z,62.52
2022-12-07T07:59:54.351Z,64.45
2022-12-07T08:00:54.324Z,80.24
2022-12-07T08:01:54.408Z,73.64
2022-12-07T08:02:54.283Z,66.87
2022-12-07T08:03:54.323Z,68.48
2022-12-07T08:04:54.388Z,70.90
2022-12-07T08:05:54.281Z,73.48
2022-12-07T08:06:54.284Z,66.71
2022-12-07T08:07:54.318Z,72.19
2022-12-07T08:08:54.275Z,73.48
2022-12-07T08:09:54.236Z,73.15
2022-12-07T08:10:54.302Z,74.28
2022-12-07T08:11:54.252Z,69.29
2022-12-07T08:12:54.235Z,69.77
2022-12-07T08:13:54.231Z,65.58
2022-12-07T08:14:54.224Z,71.54
2022-12-07T08:15:54.252Z,69.45
2022-12-07T08:16:54.236Z,74.28
2022-12-07T08:17:54.204Z,74.60
2022-12-07T08:18:54.208Z,70.09
2022-12-07T08:19:54.183Z,71.70
2022-12-07T08:20:54.169Z,71.54
2022-12-07T08:21:54.175Z,65.42
2022-12-07T08:22:54.200Z,66.71
2022-12-07T08:23:54.152Z,67.68
2022-12-07T08:24:54.170Z,68.48
2022-12-07T08:25:54.165Z,68.96
2022-12-07T08:26:54.143Z,68.16
2022-12-07T08:27:54.143Z,68.64
2022-12-07T08:28:54.216Z,68.32
2022-12-07T08:29:54.098Z,68.80
2022-12-07T08:30:54.117Z,67.35
2022-12-07T08:31:54.113Z,67.51
2022-12-07T08:32:54.113Z,71.06
2022-12-07T08:33:54.104Z,75.25
2022-12-07T08:34:54.186Z,75.73
2022-12-07T08:35:54.078Z,78.47
2022-12-07T08:36:54.116Z,79.60
2022-12-07T08:37:54.044Z,75.09
2022-12-07T08:39:29.393Z,68.16
2022-12-07T08:39:55.095Z,68.96
2022-12-07T08:40:54.025Z,72.83
2022-12-07T08:41:54.039Z,68.80
2022-12-07T08:42:54.024Z,76.54
2022-12-07T08:43:54.021Z,69.77
2022-12-07T08:44:54.009Z,68.00
2022-12-07T08:45:54.133Z,69.29
2022-12-07T08:46:54.052Z,66.06
2022-12-07T08:47:54.012Z,64.94
2022-12-07T08:48:54.006Z,73.32
2022-12-07T08:49:53.983Z,65.58
2022-12-07T08:50:53.967Z,66.55
2022-12-07T08:51:54.001Z,72.83
2022-12-07T08:52:53.986Z,71.22
2022-12-07T08:53:53.974Z,66.06
2022-12-07T08:54:53.945Z,65.10
2022-12-07T08:55:53.973Z,67.68
2022-12-07T08:56:58.803Z,70.09
2022-12-07T08:57:54.972Z,70.74
2022-12-07T08:58:53.994Z,85.40
2022-12-07T08:59:53.922Z,84.76
2022-12-07T09:00:53.916Z,83.79
2022-12-07T09:01:53.955Z,80.24
2022-12-07T09:02:53.895Z,71.70
2022-12-07T09:03:53.921Z,66.87
2022-12-07T09:04:53.861Z,66.55
2022-12-07T09:05:53.937Z,68.96
2022-12-07T09:06:53.929Z,67.19
2022-12-07T09:07:53.896Z,66.55
2022-12-07T09:08:53.843Z,64.29
2022-12-07T09:09:53.892Z,63.16
2022-12-07T09:10:53.843Z,64.29
2022-12-07T09:11:53.848Z,63.97
2022-12-07T09:12:53.813Z,63.16
2022-12-07T09:13:53.833Z,63.49
2022-12-07T09:14:53.806Z,64.13
2022-12-07T09:15:53.903Z,65.74
2022-12-07T09:16:53.781Z,71.54
2022-12-07T09:17:53.772Z,65.90
2022-12-07T09:18:53.772Z,68.48
2022-12-07T09:19:53.767Z,66.55
2022-12-07T09:20:53.766Z,75.57
2022-12-07T09:21:53.791Z,75.57
2022-12-07T09:22:53.755Z,67.51
2022-12-07T09:23:53.708Z,70.25
2022-12-07T09:24:53.724Z,70.09
2022-12-07T09:25:53.738Z,68.96
2022-12-07T09:26:53.711Z,69.61
2022-12-07T09:27:53.753Z,70.25
2022-12-07T09:28:53.712Z,69.77
2022-12-07T09:29:53.705Z,67.68
2022-12-07T09:31:22.192Z,69.93
2022-12-07T09:31:54.726Z,69.61
2022-12-07T09:32:53.672Z,70.58
2022-12-07T09:33:53.722Z,68.48
2022-12-07T09:34:53.718Z,68.64
2022-12-07T09:35:53.677Z,67.68
2022-12-07T09:36:53.657Z,68.48
2022-12-07T09:37:53.621Z,68.96
2022-12-07T09:38:53.651Z,66.23
2022-12-07T09:39:53.904Z,63.33
2022-12-07T09:40:53.638Z,63.81
2022-12-07T09:41:53.621Z,74.93
2022-12-07T09:42:53.648Z,67.35
2022-12-07T09:43:53.605Z,76.86
2022-12-07T09:44:53.571Z,82.98
2022-12-07T09:45:53.651Z,87.01
2022-12-07T09:46:53.599Z,88.14
2022-12-07T09:47:53.571Z,86.04
2022-12-07T09:48:53.554Z,88.78
2022-12-07T09:49:53.561Z,88.62
2022-12-07T09:50:53.557Z,68.48
2022-12-07T09:51:53.592Z,66.87
2022-12-07T09:52:53.525Z,75.41
2022-12-07T09:53:53.565Z,73.48
2022-12-07T09:54:53.530Z,62.36
2022-12-07T09:55:53.512Z,64.29
2022-12-07T09:56:53.504Z,67.35
2022-12-07T09:57:53.531Z,65.26
2022-12-07T09:58:53.490Z,64.13
2022-12-07T09:59:53.475Z,64.94
2022-12-07T10:00:53.482Z,65.10
2022-12-07T10:01:53.497Z,66.06
2022-12-07T10:02:53.471Z,65.90
2022-12-07T10:03:53.511Z,68.16
2022-12-07T10:04:53.544Z,69.93
2022-12-07T10:05:53.455Z,67.51
2022-12-07T10:06:53.431Z,68.32
2022-12-07T10:07:53.510Z,68.64
2022-12-07T10:08:53.434Z,60.59
2022-12-07T10:09:53.451Z,66.87
2022-12-07T10:10:53.400Z,80.08
2022-12-07T10:11:53.408Z,71.06
2022-12-07T10:12:53.403Z,67.35
2022-12-07T10:13:53.371Z,76.70
2022-12-07T10:15:09.057Z,74.28
2022-12-07T10:15:54.509Z,69.13
2022-12-07T10:16:53.365Z,63.81
2022-12-07T10:17:53.375Z,64.29
2022-12-07T10:18:53.359Z,64.78
2022-12-07T10:19:53.354Z,61.39
2022-12-07T10:20:53.361Z,62.68
2022-12-07T10:21:53.392Z,65.58
2022-12-07T10:22:53.321Z,63.81
2022-12-07T10:23:53.316Z,61.87
2022-12-07T10:24:53.295Z,65.10
2022-12-07T10:25:53.292Z,66.39
2022-12-07T10:26:53.305Z,70.09
2022-12-07T10:27:53.383Z,62.20
2022-12-07T10:28:53.302Z,63.16
2022-12-07T10:29:53.293Z,61.39
2022-12-07T10:30:53.331Z,63.00
2022-12-07T10:31:53.329Z,70.09
2022-12-07T10:32:53.279Z,66.23
2022-12-07T10:33:53.314Z,72.03
2022-12-07T10:34:53.240Z,83.63
2022-12-07T10:35:53.251Z,61.87
2022-12-07T10:36:53.245Z,68.64
2022-12-07T10:37:53.243Z,63.00
2022-12-07T10:38:53.213Z,65.10
2022-12-07T10:39:53.491Z,63.49
2022-12-07T10:40:53.180Z,60.42
2022-12-07T10:41:53.225Z,63.16
2022-12-07T10:42:53.181Z,60.59
2022-12-07T10:43:53.192Z,67.51
2022-12-07T10:44:53.243Z,63.97
2022-12-07T10:46:04.858Z,61.23
2022-12-07T10:46:54.204Z,64.29
2022-12-07T10:47:53.127Z,81.53
2022-12-07T10:48:53.151Z,69.45
2022-12-07T10:49:53.125Z,66.87
2022-12-07T10:50:53.134Z,70.42
2022-12-07T10:51:53.160Z,65.58
2022-12-07T10:52:53.141Z,62.68
2022-12-07T10:53:53.128Z,65.42
2022-12-07T10:54:53.127Z,66.39
2022-12-07T10:55:53.095Z,69.29
2022-12-07T10:56:53.085Z,64.78
2022-12-07T10:57:53.155Z,67.35
2022-12-07T10:58:53.086Z,66.55
2022-12-07T10:59:53.071Z,66.39
2022-12-07T11:00:53.101Z,66.06
2022-12-07T11:01:53.123Z,68.32
2022-12-07T11:02:53.051Z,81.86
2022-12-07T11:03:53.109Z,69.61
2022-12-07T11:04:53.031Z,64.94
2022-12-07T11:05:53.035Z,61.87
2022-12-07T11:06:53.022Z,63.16
2022-12-07T11:07:56.816Z,61.71
2022-12-07T11:08:53.000Z,65.58
2022-12-07T11:10:19.259Z,69.77
2022-12-07T11:10:53.991Z,63.16
2022-12-07T11:11:52.992Z,60.59
2022-12-07T11:12:52.980Z,64.45
2022-12-07T11:13:52.980Z,63.97
2022-12-07T11:14:52.967Z,59.62
2022-12-07T11:15:53.091Z,61.07
2022-12-07T11:16:53.014Z,64.78
2022-12-07T11:17:52.938Z,63.81
2022-12-07T11:18:52.921Z,60.26
2022-12-07T11:19:52.933Z,62.36
2022-12-07T11:20:52.944Z,61.07
2022-12-07T11:21:52.961Z,60.10
2022-12-07T11:22:52.915Z,61.23
2022-12-07T11:23:52.902Z,62.20
2022-12-07T11:24:52.892Z,61.55
2022-12-07T11:25:52.874Z,61.23
2022-12-07T11:26:52.880Z,58.49
2022-12-07T11:27:52.942Z,60.10
2022-12-07T11:28:52.874Z,60.42
2022-12-07T11:29:52.871Z,61.87
2022-12-07T11:30:52.850Z,60.59
2022-12-07T11:31:52.904Z,62.52
2022-12-07T11:32:52.828Z,61.71
2022-12-07T11:33:52.892Z,58.97
2022-12-07T11:34:52.811Z,63.65
2022-12-07T11:35:52.832Z,67.35
2022-12-07T11:36:52.816Z,63.00
2022-12-07T11:37:52.791Z,70.74
2022-12-07T11:38:52.800Z,61.71
2022-12-07T11:39:52.851Z,60.10
2022-12-07T11:40:52.783Z,61.39
2022-12-07T11:41:52.775Z,64.61
2022-12-07T11:42:52.763Z,59.78
2022-12-07T11:43:52.764Z,63.00
2022-12-07T11:44:52.730Z,58.65
2022-12-07T11:45:53.022Z,61.39
2022-12-07T11:46:52.798Z,67.51
2022-12-07T11:47:52.741Z,65.58
2022-12-07T11:48:52.721Z,62.68
2022-12-07T11:49:52.735Z,59.78
2022-12-07T11:50:52.719Z,60.75
2022-12-07T11:51:52.798Z,61.87
2022-12-07T11:52:52.704Z,63.49
2022-12-07T11:53:52.694Z,67.35
2022-12-07T11:54:52.703Z,62.04
2022-12-07T11:55:52.677Z,61.87
2022-12-07T11:56:52.664Z,63.00
2022-12-07T11:57:52.710Z,63.65
2022-12-07T11:58:52.652Z,63.65
2022-12-07T11:59:52.647Z,63.81
2022-12-07T12:00:52.650Z,65.26
2022-12-07T12:01:52.693Z,66.06
2022-12-07T12:02:52.682Z,68.32
2022-12-07T12:03:53.593Z,68.80
2022-12-07T12:04:52.611Z,65.58
2022-12-07T12:05:52.633Z,70.25
2022-12-07T12:06:52.832Z,81.21
2022-12-07T12:09:53.715Z,60.10
2022-12-07T12:10:52.591Z,61.23
2022-12-07T12:11:52.695Z,61.55
2022-12-07T12:14:53.611Z,70.74
2022-12-07T12:15:52.586Z,61.71
2022-12-07T12:16:52.639Z,59.14
2022-12-07T12:17:52.532Z,63.16
2022-12-07T12:18:52.516Z,64.45
2022-12-07T12:19:52.558Z,65.90
2022-12-07T12:20:52.724Z,61.87
2022-12-07T12:21:58.035Z,61.87
2022-12-07T12:22:53.481Z,64.45
2022-12-07T12:23:52.492Z,67.35
2022-12-07T12:24:52.490Z,73.80
2022-12-07T12:25:52.510Z,69.61
2022-12-07T12:26:52.538Z,71.87
2022-12-07T12:27:52.471Z,81.21
2022-12-07T12:28:52.502Z,75.73
2022-12-07T12:29:52.420Z,73.96
2022-12-07T12:30:52.442Z,69.61
2022-12-07T12:31:52.510Z,77.67
2022-12-07T12:32:52.509Z,74.28
2022-12-07T12:33:52.417Z,68.80
2022-12-07T12:34:52.400Z,73.64
2022-12-07T12:35:52.378Z,76.05
2022-12-07T12:36:52.580Z,68.16
2022-12-07T12:37:52.378Z,74.12
2022-12-07T12:38:52.425Z,81.21
2022-12-07T12:39:52.455Z,77.67
2022-12-07T12:40:52.352Z,75.89
2022-12-07T12:41:52.359Z,75.09
2022-12-07T12:42:52.339Z,76.54
2022-12-07T12:43:52.350Z,70.58
2022-12-07T12:44:52.367Z,78.63
2022-12-07T12:45:52.390Z,73.32
2022-12-07T12:46:52.346Z,78.96
2022-12-07T12:47:52.316Z,72.19
2022-12-07T12:48:52.309Z,76.86
2022-12-07T12:49:52.331Z,72.51
2022-12-07T12:50:52.654Z,77.67
2022-12-07T12:51:52.292Z,78.31
2022-12-07T12:52:52.273Z,73.32
2022-12-07T12:53:52.280Z,72.19
2022-12-07T12:54:52.270Z,72.67
2022-12-07T12:55:52.253Z,80.57
2022-12-07T12:56:52.329Z,81.21